Time;durP1;ratioP1;P1;durP2;ratioP2;P2;SDS_P1;SDS_P2;PMS_P1;PMS_P2;Temp;Humidity;BMP_temperature;BMP_pressure;BME280_temperature;BME280_humidity;BME280_pressure;Samples;Min_cycle;Max_cycle;Signal;HPM_P1;HPM_P2
2023/08/24 03:46:24;;;;;;;607.13;559.22;;;14.00;81.90;;;;;;5828132;22;9662935;-90
2023/08/24 03:48:53;;;;;;;620.45;566.08;;;14.00;81.90;;;;;;6163864;23;20017;-89
2023/08/24 03:52:00;;;;;;;652.60;592.03;;;14.00;81.90;;;;;;6154575;23;20020;-89
2023/08/24 03:54:49;;;;;;;552.92;510.63;;;14.00;81.90;;;;;;6162162;23;20475;-91
2023/08/24 04:04:43;;;;;;;514.42;475.77;;;14.10;82.20;;;;;;6181626;23;20008;-88
2023/08/24 04:07:09;;;;;;;670.30;608.67;;;14.10;82.10;;;;;;6135559;23;20444;-88
2023/08/24 04:09:38;;;;;;;638.38;582.80;;;14.10;82.10;;;;;;6140744;23;20471;-88
2023/08/24 04:12:10;;;;;;;577.30;529.45;;;14.10;82.10;;;;;;6122009;23;20014;-87
2023/08/24 04:14:52;;;;;;;588.05;540.92;;;14.10;82.10;;;;;;6100701;23;20053;-88
2023/08/24 04:17:29;;;;;;;595.72;549.80;;;14.10;82.20;;;;;;6108855;23;20028;-88
2023/08/24 04:19:55;;;;;;;618.17;566.42;;;14.10;82.40;;;;;;6122461;23;20444;-88
2023/08/24 04:22:29;;;;;;;623.70;571.67;;;14.10;82.40;;;;;;6122334;23;20022;-88
2023/08/24 04:25:04;;;;;;;691.13;625.95;;;14.10;82.20;;;;;;6101664;23;20503;-88
2023/08/24 04:27:53;;;;;;;635.10;577.05;;;14.10;82.10;;;;;;6115195;23;20028;-88
2023/08/24 04:30:22;;;;;;;623.50;569.00;;;14.10;82.10;;;;;;6124524;23;20027;-88
2023/08/24 04:33:03;;;;;;;;;;;;;;;;;;;;;
2023/08/24 04:35:53;;;;;;;578.78;533.42;;;14.10;82.30;;;;;;6140355;23;20032;-88
2023/08/24 04:38:30;;;;;;;549.65;507.90;;;14.10;82.50;;;;;;6116199;23;20076;-88
2023/08/24 04:41:09;;;;;;;;;;;;;;;;;;;;;
2023/08/24 04:43:36;;;;;;;629.75;577.88;;;14.10;82.40;;;;;;6155622;23;20025;-88
2023/08/24 04:49:08;;;;;;;662.63;608.90;;;14.10;82.30;;;;;;6165330;23;20027;-88
2023/08/24 04:51:43;;;;;;;610.90;559.70;;;14.10;82.30;;;;;;6158861;23;20539;-88
2023/08/24 04:54:29;;;;;;;716.28;651.13;;;14.10;82.20;;;;;;6136069;23;20024;-88
2023/08/24 04:56:55;;;;;;;555.80;513.70;;;14.10;82.20;;;;;;6151675;23;20020;-88
2023/08/24 04:59:23;;;;;;;662.00;605.60;;;14.10;82.20;;;;;;6139911;23;20787;-88
2023/08/24 05:01:52;;;;;;;669.67;610.03;;;14.00;82.20;;;;;;6158875;23;20013;-89
2023/08/24 05:04:18;;;;;;;631.63;581.13;;;14.00;82.20;;;;;;6168297;23;20101;-89
2023/08/24 05:06:44;;;;;;;651.70;599.95;;;14.00;82.20;;;;;;6152572;23;20155;-89
2023/08/24 05:09:43;;;;;;;;;;;;;;;;;;;;;
2023/08/24 05:12:12;;;;;;;;;;;;;;;;;;;;;
2023/08/24 05:14:48;;;;;;;640.75;589.30;;;14.00;82.30;;;;;;6232572;23;20020;-88
2023/08/24 05:17:20;;;;;;;593.38;544.17;;;14.10;82.40;;;;;;6107675;23;20023;-89
2023/08/24 05:19:50;;;;;;;703.63;644.67;;;14.10;82.60;;;;;;6166140;23;20079;-88
2023/08/24 05:22:42;;;;;;;590.47;544.00;;;14.10;82.60;;;;;;6129358;23;20478;-88
2023/08/24 05:25:19;;;;;;;606.80;559.30;;;14.20;82.70;;;;;;6173116;23;20016;-88
2023/08/24 05:27:54;;;;;;;570.58;526.88;;;14.30;82.70;;;;;;6133554;23;20103;-88
2023/08/24 05:30:32;;;;;;;616.30;567.88;;;14.30;82.80;;;;;;6153258;23;20433;-88
2023/08/24 05:32:58;;;;;;;577.58;532.88;;;14.40;82.80;;;;;;6133294;23;20065;-88
2023/08/24 05:35:30;;;;;;;626.30;574.28;;;14.40;82.90;;;;;;6158585;23;20035;-88
2023/08/24 05:37:59;;;;;;;615.67;564.72;;;14.50;82.90;;;;;;6152357;23;20016;-90
2023/08/24 05:40:28;;;;;;;661.00;604.53;;;14.50;83.10;;;;;;6134394;23;20031;-89
2023/08/24 05:43:06;;;;;;;672.30;613.08;;;14.60;83.10;;;;;;6132539;23;20423;-90
2023/08/24 05:45:54;;;;;;;;;;;;;;;;;;;;;
2023/08/24 05:48:29;;;;;;;611.53;561.38;;;14.70;83.20;;;;;;6183210;23;20108;-90
2023/08/24 05:50:58;;;;;;;574.08;528.35;;;14.80;83.30;;;;;;6203304;23;20554;-91
2023/08/24 05:53:40;;;;;;;681.72;624.45;;;14.90;83.30;;;;;;6201379;23;20027;-90
2023/08/24 05:56:09;;;;;;;744.17;672.42;;;14.90;83.20;;;;;;6133067;23;20017;-89
2023/08/24 05:58:43;;;;;;;753.40;679.88;;;15.00;83.20;;;;;;6099302;23;20057;-90
2023/08/24 06:07:10;;;;;;;706.83;643.67;;;15.30;83.30;;;;;;6078158;23;20396;-92
2023/08/24 06:09:40;;;;;;;733.42;666.95;;;15.50;83.20;;;;;;6093577;23;20053;-90
2023/08/24 06:12:20;;;;;;;;;;;;;;;;;;;;;
2023/08/24 06:14:46;;;;;;;759.55;686.30;;;15.60;82.90;;;;;;6097035;23;20362;-91
2023/08/24 06:17:58;;;;;;;748.88;676.88;;;15.70;83.00;;;;;;6150476;23;20032;-90
2023/08/24 06:20:29;;;;;;;718.15;655.00;;;15.80;82.80;;;;;;6165427;23;20021;-90
2023/08/24 06:22:55;;;;;;;732.63;666.17;;;15.90;82.80;;;;;;6125542;23;20021;-90
2023/08/24 06:30:03;;;;;;;746.92;675.05;;;16.00;82.70;;;;;;6115544;23;20463;-96
2023/08/24 06:32:32;;;;;;;739.05;675.13;;;16.10;82.80;;;;;;6081955;23;20049;-90
2023/08/24 06:34:59;;;;;;;788.97;714.88;;;16.20;82.90;;;;;;6148500;23;20108;-90
2023/08/24 06:37:30;;;;;;;765.00;695.35;;;16.30;82.80;;;;;;6177009;23;20017;-91
2023/08/24 06:40:08;;;;;;;801.03;726.50;;;16.40;82.80;;;;;;6207082;23;20458;-90
2023/08/24 06:42:44;;;;;;;;;;;;;;;;;;;;;
2023/08/24 06:45:12;;;;;;;796.30;722.35;;;16.70;82.70;;;;;;6190064;23;20048;-90
2023/08/24 06:47:39;;;;;;;790.50;715.60;;;16.80;82.60;;;;;;6142083;23;20016;-89
2023/08/24 06:50:11;;;;;;;855.08;772.10;;;16.90;82.30;;;;;;6177137;23;20064;-89
2023/08/24 06:52:46;;;;;;;829.92;747.83;;;17.00;82.20;;;;;;6143649;23;20047;-89
2023/08/24 06:55:18;;;;;;;863.20;777.95;;;17.00;82.00;;;;;;6160574;23;20518;-89
2023/08/24 06:57:51;;;;;;;874.45;785.50;;;17.20;81.70;;;;;;6125864;23;20386;-89
2023/08/24 07:00:20;;;;;;;864.65;781.50;;;17.20;81.40;;;;;;6159971;23;20018;-88
2023/08/24 07:02:52;;;;;;;853.80;768.20;;;17.30;81.20;;;;;;6155055;23;20119;-90
2023/08/24 07:05:20;;;;;;;904.17;814.38;;;17.40;81.20;;;;;;6153139;23;20031;-90
2023/08/24 07:07:56;;;;;;;874.20;789.65;;;17.50;80.80;;;;;;6144849;23;20456;-89
2023/08/24 07:10:24;;;;;;;886.65;797.80;;;17.60;80.50;;;;;;6152258;23;20028;-90
2023/08/24 07:13:01;;;;;;;862.10;779.63;;;17.60;80.10;;;;;;6121557;23;20123;-89
2023/08/24 07:15:28;;;;;;;835.22;754.45;;;17.70;80.00;;;;;;6144343;23;20333;-90
2023/08/24 07:18:00;;;;;;;856.75;775.28;;;17.80;79.60;;;;;;6145280;23;20024;-89
2023/08/24 07:20:28;;;;;;;846.45;766.28;;;17.80;79.40;;;;;;6154314;23;20075;-89
2023/08/24 07:22:57;;;;;;;857.78;775.15;;;17.80;79.10;;;;;;6151036;23;20020;-90
2023/08/24 07:25:28;;;;;;;851.92;770.92;;;17.90;79.00;;;;;;6152722;23;20175;-89
2023/08/24 07:27:58;;;;;;;821.15;745.42;;;18.00;78.90;;;;;;6139187;23;20031;-90
2023/08/24 07:30:41;;;;;;;843.27;765.10;;;18.00;78.60;;;;;;6166476;23;20028;-90
2023/08/24 07:33:11;;;;;;;836.45;761.15;;;18.10;77.40;;;;;;6153098;23;20024;-90
2023/08/24 07:35:42;;;;;;;845.08;765.47;;;18.10;77.90;;;;;;6154616;23;20051;-90
2023/08/24 07:38:13;;;;;;;841.10;763.53;;;18.20;77.80;;;;;;6149373;23;20106;-90
2023/08/24 07:40:49;;;;;;;816.50;743.75;;;18.20;77.50;;;;;;6131463;23;20021;-90
2023/08/24 07:43:18;;;;;;;831.80;755.17;;;18.30;77.60;;;;;;6082888;23;20069;-89
2023/08/24 07:48:42;;;;;;;804.83;732.13;;;18.50;77.10;;;;;;6167978;23;20056;-89
2023/08/24 07:51:10;;;;;;;;;;;18.60;76.90;;;;;;6131503;23;20016;-89
2023/08/24 07:53:44;;;;;;;814.95;739.85;;;18.60;76.30;;;;;;6153281;23;19991;-90
2023/08/24 07:56:26;;;;;;;805.92;734.53;;;18.60;76.80;;;;;;6151910;23;20802;-90
2023/08/24 07:59:12;;;;;;;815.03;741.55;;;18.70;76.20;;;;;;6146553;23;20028;-90
2023/08/24 08:01:38;;;;;;;767.08;702.00;;;18.80;76.50;;;;;;6130052;23;20025;-89
2023/08/24 08:04:06;;;;;;;864.80;781.75;;;18.90;76.70;;;;;;6160229;23;20027;-90
2023/08/24 08:06:34;;;;;;;;;;;18.90;76.60;;;;;;6174204;23;20058;-89
2023/08/24 08:09:03;;;;;;;786.92;714.65;;;19.00;75.60;;;;;;6146009;23;19990;-90
2023/08/24 08:11:32;;;;;;;810.65;735.65;;;19.00;76.40;;;;;;6225598;23;20110;-90
2023/08/24 08:14:04;;;;;;;788.33;720.97;;;19.10;76.00;;;;;;6147158;23;20032;-89
2023/08/24 08:16:36;;;;;;;781.83;710.67;;;19.10;75.80;;;;;;6124671;23;20012;-89
2023/08/24 08:19:02;;;;;;;805.58;732.63;;;19.10;75.40;;;;;;6151135;23;20043;-89
2023/08/24 08:21:49;;;;;;;813.85;741.95;;;19.10;75.50;;;;;;6152152;23;20100;-90
2023/08/24 08:24:17;;;;;;;799.42;726.78;;;19.20;75.60;;;;;;6116741;23;20102;-90
2023/08/24 08:26:51;;;;;;;803.63;729.28;;;19.20;75.70;;;;;;6146491;23;20098;-90
2023/08/24 08:29:24;;;;;;;851.60;769.55;;;19.30;75.60;;;;;;6155670;23;20035;-91
2023/08/24 08:32:02;;;;;;;847.78;770.75;;;19.40;75.30;;;;;;6151117;23;20016;-90
2023/08/24 08:34:33;;;;;;;759.65;695.17;;;19.50;75.10;;;;;;6132660;23;20095;-91
2023/08/24 08:37:08;;;;;;;827.08;746.42;;;19.50;75.10;;;;;;6144344;23;20123;-89
2023/08/24 08:40:24;;;;;;;833.50;749.58;;;19.50;75.20;;;;;;6153803;23;20028;-90
2023/08/24 08:43:11;;;;;;;;;;;;;;;;;;;;;
2023/08/24 08:45:51;;;;;;;794.75;721.88;;;19.70;75.00;;;;;;6184958;23;20024;-90
2023/08/24 08:48:24;;;;;;;819.97;746.47;;;19.80;75.10;;;;;;6170813;23;20028;-90
2023/08/24 08:50:56;;;;;;;806.53;736.33;;;19.90;75.20;;;;;;6127592;23;20335;-91
2023/08/24 08:59:57;;;;;;;836.67;756.08;;;20.10;75.10;;;;;;6170186;23;20155;-90
2023/08/24 09:02:24;;;;;;;783.13;714.58;;;20.10;75.00;;;;;;6137072;23;20022;-89
2023/08/24 09:04:55;;;;;;;792.67;721.60;;;20.10;75.30;;;;;;6129635;23;20355;-91
2023/08/24 09:10:47;;;;;;;803.15;729.17;;;20.20;75.40;;;;;;6173945;23;20071;-90
2023/08/24 09:13:33;;;;;;;;;;;;;;;;;;;;;
2023/08/24 09:16:23;;;;;;;830.72;754.17;;;20.30;75.30;;;;;;6226476;23;20027;-90
2023/08/24 09:18:51;;;;;;;785.78;716.47;;;20.40;75.30;;;;;;6152384;23;20099;-91
2023/08/24 09:21:20;;;;;;;890.63;801.47;;;20.50;75.20;;;;;;6153680;23;20051;-90
2023/08/24 09:23:56;;;;;;;841.38;761.33;;;20.60;75.10;;;;;;6154342;23;20020;-88
2023/08/24 09:26:57;;;;;;;828.08;753.42;;;20.70;74.80;;;;;;6151597;23;20589;-90
2023/08/24 09:29:29;;;;;;;858.30;779.05;;;20.80;74.70;;;;;;6095989;23;20031;-90
2023/08/24 09:31:55;;;;;;;851.55;773.90;;;20.80;74.70;;;;;;6153431;23;20048;-90
2023/08/24 09:34:26;;;;;;;836.13;759.92;;;20.80;74.80;;;;;;6080587;23;20422;-90
2023/08/24 09:37:14;;;;;;;846.78;772.08;;;20.90;74.60;;;;;;6113494;23;20013;-90
2023/08/24 09:39:42;;;;;;;833.75;758.58;;;20.90;74.90;;;;;;6117670;23;20021;-90
2023/08/24 09:42:15;;;;;;;852.97;772.78;;;20.90;74.60;;;;;;6102978;23;20025;-92
2023/08/24 09:44:54;;;;;;;837.58;758.72;;;20.90;74.70;;;;;;6097961;23;20029;-90
2023/08/24 09:47:52;;;;;;;849.15;769.53;;;20.90;74.50;;;;;;6109143;23;20044;-89
2023/08/24 09:50:19;;;;;;;888.53;798.38;;;20.90;74.60;;;;;;6098778;23;20515;-89
2023/08/24 09:53:08;;;;;;;826.90;754.22;;;20.90;74.50;;;;;;6093917;23;20072;-90
2023/08/24 09:55:41;;;;;;;812.10;738.88;;;20.90;73.60;;;;;;6106884;23;20053;-90
2023/08/24 09:58:10;;;;;;;830.10;754.83;;;20.80;74.30;;;;;;6097422;23;20339;-88
2023/08/24 10:00:41;;;;;;;828.15;755.90;;;20.80;74.20;;;;;;6118258;23;20017;-90
2023/08/24 10:03:10;;;;;;;844.22;766.15;;;20.80;74.30;;;;;;6116613;23;20028;-90
2023/08/24 10:05:39;;;;;;;828.42;754.92;;;20.80;74.40;;;;;;6116617;23;20587;-89
2023/08/24 10:08:09;;;;;;;833.55;760.88;;;20.80;74.50;;;;;;6112763;23;20016;-89
2023/08/24 10:10:36;;;;;;;860.33;777.57;;;20.70;74.60;;;;;;6126985;23;20052;-89
2023/08/24 10:13:16;;;;;;;865.20;781.85;;;20.70;74.90;;;;;;6094270;23;20263;-89
2023/08/24 10:15:48;;;;;;;843.00;767.60;;;20.70;75.00;;;;;;6128592;23;20060;-89
2023/08/24 10:18:45;;;;;;;805.50;735.42;;;20.70;75.00;;;;;;6090413;23;20457;-91
2023/08/24 10:21:32;;;;;;;818.03;745.35;;;20.70;74.40;;;;;;6124387;23;20017;-89
2023/08/24 10:23:58;;;;;;;815.10;740.28;;;20.70;74.70;;;;;;6153702;23;20831;-89
2023/08/24 10:26:27;;;;;;;860.50;778.95;;;20.60;74.80;;;;;;6116033;23;20028;-90
2023/08/24 10:28:57;;;;;;;836.22;762.30;;;20.60;75.00;;;;;;6124851;23;20143;-90
2023/08/24 10:31:56;;;;;;;827.75;751.17;;;20.60;75.00;;;;;;6118945;23;20021;-90
2023/08/24 10:34:27;;;;;;;865.15;783.13;;;20.60;75.20;;;;;;6115342;23;20040;-89
2023/08/24 10:36:58;;;;;;;;;;;20.60;75.20;;;;;;6088233;23;20690;-90
2023/08/24 10:39:29;;;;;;;831.08;753.10;;;20.60;75.10;;;;;;6115004;23;19921;-90
2023/08/24 10:41:55;;;;;;;805.83;734.70;;;20.60;75.30;;;;;;6116851;23;20104;-89
2023/08/24 10:44:39;;;;;;;868.85;785.90;;;20.60;75.10;;;;;;6126275;23;20064;-90
2023/08/24 10:47:17;;;;;;;854.80;772.45;;;20.60;75.10;;;;;;6114389;23;20127;-89
2023/08/24 10:53:31;;;;;;;845.70;767.92;;;20.50;75.10;;;;;;6095653;22;20032;-91
2023/08/24 12:55:20;;;;;;;866.03;789.55;;;21.10;79.20;;;;;;6201530;23;20016;-91
2023/08/24 12:57:46;;;;;;;906.60;825.10;;;21.10;79.40;;;;;;6169482;23;20413;-91
2023/08/24 13:00:18;;;;;;;879.03;800.85;;;21.30;79.50;;;;;;6191659;23;20074;-92
2023/08/24 17:59:59;;;;;;;873.95;792.75;;;20.30;80.90;;;;;;6253282;22;1761446;-94
2023/08/24 18:02:26;;;;;;;819.25;746.58;;;20.30;80.90;;;;;;6258139;22;20022;-91
2023/08/24 18:12:43;;;;;;;868.53;786.28;;;20.20;80.90;;;;;;6193622;23;20012;-92
2023/08/24 18:15:20;;;;;;;831.90;753.67;;;20.10;80.90;;;;;;6132237;23;20056;-90
2023/08/24 18:33:12;;;;;;;837.05;761.33;;;20.00;81.60;;;;;;6302608;22;20021;-91
2023/08/24 18:35:37;;;;;;;868.72;787.50;;;19.90;81.60;;;;;;6258814;22;20090;-91
2023/08/24 18:38:10;;;;;;;844.33;768.10;;;19.90;81.70;;;;;;6257325;22;20448;-91
2023/08/24 18:41:13;;;;;;;897.83;813.88;;;19.90;81.70;;;;;;6309261;22;20068;-91
2023/08/24 18:43:38;;;;;;;839.67;760.88;;;19.90;81.70;;;;;;6277325;22;20019;-91
2023/08/24 18:46:04;;;;;;;827.47;753.17;;;19.90;81.70;;;;;;6255718;22;20092;-91
2023/08/24 18:48:38;;;;;;;829.67;755.60;;;19.90;81.70;;;;;;6279448;22;20030;-91
2023/08/24 18:51:04;;;;;;;884.83;803.72;;;19.90;81.70;;;;;;6254984;22;20034;-91
2023/08/24 18:53:29;;;;;;;825.88;752.83;;;19.90;81.70;;;;;;6303983;22;20016;-91
2023/08/24 18:57:08;;;;;;;868.08;790.28;;;19.90;81.70;;;;;;6306609;22;20019;-91
2023/08/24 19:00:08;;;;;;;832.17;759.05;;;19.80;82.30;;;;;;6279094;22;20031;-91
2023/08/24 19:02:33;;;;;;;867.20;789.22;;;19.70;82.50;;;;;;6278189;22;20027;-92
2023/08/24 19:04:59;;;;;;;842.95;769.60;;;19.70;82.40;;;;;;6308132;22;20022;-91
2023/08/24 19:07:59;;;;;;;878.03;798.30;;;19.70;82.60;;;;;;6304456;22;20019;-91
2023/08/24 19:10:55;;;;;;;832.47;758.35;;;19.70;82.80;;;;;;6308223;22;20015;-91
2023/08/24 19:13:21;;;;;;;802.25;732.05;;;19.70;83.00;;;;;;6298357;22;20058;-90
2023/08/24 19:15:47;;;;;;;828.85;755.03;;;19.70;82.80;;;;;;6306672;22;20020;-91
2023/08/24 19:18:13;;;;;;;818.83;745.17;;;19.70;82.80;;;;;;6299557;22;20027;-91
2023/08/24 19:20:41;;;;;;;838.90;763.30;;;19.70;82.80;;;;;;6229648;22;20054;-91
2023/08/24 19:23:37;;;;;;;835.10;758.47;;;19.70;82.70;;;;;;6301325;22;20118;-91
2023/08/24 19:26:03;;;;;;;796.63;728.40;;;19.70;82.70;;;;;;6294117;22;20049;-91
2023/08/24 19:28:29;;;;;;;808.47;738.42;;;19.70;82.60;;;;;;6251662;22;20019;-93
2023/08/24 19:30:56;;;;;;;811.15;741.22;;;19.70;82.60;;;;;;6254449;22;20451;-92
2023/08/24 19:33:22;;;;;;;808.30;737.67;;;19.70;82.60;;;;;;6279241;22;20049;-92
2023/08/24 19:35:53;;;;;;;803.72;733.70;;;19.70;82.70;;;;;;6279487;22;20340;-91
2023/08/24 19:42:04;;;;;;;827.90;755.25;;;19.70;82.80;;;;;;6307752;22;20351;-92
2023/08/24 19:44:35;;;;;;;853.70;780.53;;;19.60;82.80;;;;;;6278738;22;20019;-90
2023/08/24 19:47:00;;;;;;;778.25;713.30;;;19.50;82.90;;;;;;6303220;22;20501;-91
2023/08/24 19:49:26;;;;;;;872.00;794.03;;;19.50;82.80;;;;;;6274497;22;20027;-89
2023/08/24 19:51:52;;;;;;;794.58;726.03;;;19.50;82.80;;;;;;6305378;22;20023;-92
2023/08/24 19:54:19;;;;;;;847.95;771.75;;;19.50;82.80;;;;;;6258529;22;20494;-91
2023/08/24 19:57:35;;;;;;;858.47;780.75;;;19.50;82.90;;;;;;6256145;22;20019;-92
2023/08/24 20:00:33;;;;;;;810.50;739.47;;;19.50;83.00;;;;;;6188218;23;20023;-92
2023/08/24 20:07:05;;;;;;;821.00;749.28;;;19.40;83.00;;;;;;6248986;22;20020;-93
2023/08/24 20:09:31;;;;;;;770.30;707.58;;;19.40;83.20;;;;;;6224462;22;20023;-92
2023/08/24 20:11:57;;;;;;;797.42;729.03;;;19.40;83.20;;;;;;6225217;22;20442;-91
2023/08/24 20:14:23;;;;;;;852.40;775.90;;;19.40;83.00;;;;;;6249032;22;20016;-93
2023/08/24 20:16:55;;;;;;;841.35;768.80;;;19.40;83.00;;;;;;6240990;22;20022;-91
2023/08/24 20:19:21;;;;;;;824.00;749.85;;;19.30;83.10;;;;;;6223976;22;20024;-91
2023/08/24 20:21:47;;;;;;;815.67;743.55;;;19.30;83.20;;;;;;6201229;22;20038;-91
2023/08/24 20:24:12;;;;;;;819.75;747.85;;;19.30;83.30;;;;;;6214991;22;20095;-91
2023/08/24 20:26:46;;;;;;;862.83;785.72;;;19.30;83.20;;;;;;6201237;22;20007;-91
2023/08/24 20:44:38;;;;;;;847.90;772.40;;;19.20;83.40;;;;;;6283536;22;20023;-91
2023/08/24 21:01:54;;;;;;;817.55;745.33;;;19.10;83.60;;;;;;6302796;22;20041;-91
2023/08/24 21:04:20;;;;;;;867.78;789.42;;;19.00;83.40;;;;;;6188065;22;20028;-92
2023/08/24 21:06:47;;;;;;;813.97;742.70;;;19.10;83.40;;;;;;6227326;22;20023;-92
2023/08/24 21:43:36;;;;;;;845.70;766.08;;;18.90;83.60;;;;;;6271327;22;20059;-92
2023/08/24 21:46:03;;;;;;;813.92;740.95;;;18.80;83.50;;;;;;6245800;22;20023;-91
2023/08/24 21:48:30;;;;;;;837.92;763.53;;;18.80;83.70;;;;;;6256329;22;20089;-91
2023/08/24 22:02:07;;;;;;;833.00;758.92;;;18.80;84.40;;;;;;6249012;22;20020;-91
2023/08/24 22:04:33;;;;;;;842.97;767.45;;;18.80;84.50;;;;;;6276130;22;20030;-92
2023/08/24 22:26:16;;;;;;;854.47;776.35;;;18.80;85.00;;;;;;6312509;22;20045;-92
2023/08/24 22:28:42;;;;;;;844.35;767.67;;;18.80;85.10;;;;;;6286622;22;20019;-92
2023/08/24 22:31:08;;;;;;;813.80;741.40;;;18.70;85.10;;;;;;6257309;22;20011;-92
2023/08/24 23:08:25;;;;;;;789.20;720.83;;;18.70;86.00;;;;;;6353061;22;20559;-92
2023/08/24 23:10:53;;;;;;;794.75;724.50;;;18.80;86.00;;;;;;6221665;22;20016;-92
2023/08/24 23:18:01;;;;;;;796.58;725.53;;;18.80;86.20;;;;;;6277869;22;20038;-92
2023/08/24 23:20:27;;;;;;;814.40;742.63;;;18.80;86.20;;;;;;6256379;22;20016;-91
2023/08/24 23:22:53;;;;;;;791.50;719.88;;;18.90;86.10;;;;;;6227696;22;20453;-93
2023/08/24 23:44:56;;;;;;;813.67;742.38;;;19.10;85.70;;;;;;6271809;22;20004;-92
2023/08/24 23:47:22;;;;;;;804.15;733.13;;;19.10;85.60;;;;;;6224047;22;20023;-91
2023/08/24 23:53:55;;;;;;;801.25;730.63;;;19.00;85.50;;;;;;6279996;22;20050;-92
2023/08/24 23:57:01;;;;;;;807.30;736.70;;;19.00;85.60;;;;;;6205665;22;20027;-92
